Time;durP1;ratioP1;P1;durP2;ratioP2;P2;SDS_P1;SDS_P2;PMS_P1;PMS_P2;Temp;Humidity;BMP_temperature;BMP_pressure;BME280_temperature;BME280_humidity;BME280_pressure;Samples;Min_cycle;Max_cycle;Signal;HPM_P1;HPM_P2
2023/11/01 00:01:33;;;;;;;4.60;3.33;;;12.40;99.90;;;;;;5069216;28;20204;-62
2023/11/01 00:03:58;;;;;;;6.90;2.60;;;12.40;99.90;;;;;;5067384;28;20189;-63
2023/11/01 00:06:24;;;;;;;5.63;2.73;;;12.40;99.90;;;;;;5069065;28;20550;-63
2023/11/01 00:08:50;;;;;;;3.53;2.17;;;12.40;99.90;;;;;;5068572;28;20180;-62
2023/11/01 00:11:15;;;;;;;2.90;2.60;;;12.40;99.90;;;;;;5068784;28;20172;-62
2023/11/01 00:13:41;;;;;;;5.77;2.80;;;12.40;99.90;;;;;;5068580;28;20781;-63
2023/11/01 00:16:07;;;;;;;3.70;2.50;;;12.40;99.90;;;;;;5067621;28;20192;-62
2023/11/01 00:18:33;;;;;;;3.83;2.80;;;12.40;99.90;;;;;;5069533;28;20176;-62
2023/11/01 00:20:58;;;;;;;4.07;3.00;;;12.40;99.90;;;;;;5064909;28;20430;-62
2023/11/01 00:23:24;;;;;;;6.37;3.07;;;12.40;99.90;;;;;;5067607;28;20181;-62
2023/11/01 00:25:50;;;;;;;6.80;3.03;;;12.40;99.90;;;;;;5066856;28;20188;-63
2023/11/01 00:28:16;;;;;;;3.77;2.30;;;12.40;99.90;;;;;;5065502;28;20181;-63
2023/11/01 00:30:41;;;;;;;4.37;2.87;;;12.40;99.90;;;;;;5068835;28;20267;-62
2023/11/01 00:33:07;;;;;;;4.90;2.73;;;12.40;99.90;;;;;;5066534;28;20299;-62
2023/11/01 00:35:32;;;;;;;5.00;2.80;;;12.40;99.90;;;;;;5068629;28;20271;-61
2023/11/01 00:37:58;;;;;;;5.67;3.00;;;12.40;99.90;;;;;;5067446;28;20185;-63
2023/11/01 00:40:24;;;;;;;5.83;3.33;;;12.40;99.90;;;;;;5064946;28;20726;-62
2023/11/01 00:42:49;;;;;;;5.00;2.60;;;12.30;99.90;;;;;;5065867;28;20981;-63
2023/11/01 00:45:15;;;;;;;2.70;2.37;;;12.30;99.90;;;;;;5067610;28;20292;-63
2023/11/01 00:47:41;;;;;;;4.17;2.37;;;12.30;99.90;;;;;;5068715;28;20192;-62
2023/11/01 00:50:07;;;;;;;8.53;2.70;;;12.30;99.90;;;;;;5066899;28;20177;-64
2023/11/01 00:52:33;;;;;;;2.50;2.23;;;12.30;99.90;;;;;;5068557;28;21090;-63
2023/11/01 00:54:59;;;;;;;4.70;2.97;;;12.40;99.90;;;;;;5067075;28;20459;-62
2023/11/01 00:57:25;;;;;;;5.03;2.93;;;12.30;99.90;;;;;;5067973;28;20804;-64
2023/11/01 00:59:51;;;;;;;6.70;3.03;;;12.40;99.90;;;;;;5068668;28;20427;-64
2023/11/01 01:02:17;;;;;;;6.87;3.60;;;12.40;99.90;;;;;;5066326;28;20984;-62
2023/11/01 01:04:45;;;;;;;5.30;3.07;;;12.40;99.90;;;;;;5070944;28;20433;-62
2023/11/01 01:07:11;;;;;;;7.87;2.80;;;12.40;99.90;;;;;;5067237;28;20188;-63
2023/11/01 01:09:37;;;;;;;4.03;3.33;;;12.40;99.90;;;;;;5068684;28;20429;-62
2023/11/01 01:12:04;;;;;;;8.93;3.03;;;12.50;99.90;;;;;;5064828;28;20431;-64
2023/11/01 01:14:29;;;;;;;4.03;2.00;;;12.40;99.90;;;;;;5066681;28;20498;-61
2023/11/01 01:16:55;;;;;;;5.33;2.77;;;12.40;99.90;;;;;;5069402;28;20913;-62
2023/11/01 01:19:22;;;;;;;3.10;2.73;;;12.40;99.90;;;;;;5068633;28;20189;-63
2023/11/01 01:21:48;;;;;;;4.13;2.53;;;12.40;99.90;;;;;;5069818;28;20192;-64
2023/11/01 01:24:14;;;;;;;3.97;2.53;;;12.40;99.90;;;;;;5067716;28;20520;-62
2023/11/01 01:26:40;;;;;;;3.20;2.47;;;12.40;99.90;;;;;;5068430;28;21012;-62
2023/11/01 01:29:06;;;;;;;4.83;2.70;;;12.40;99.90;;;;;;5068874;28;20745;-63
2023/11/01 01:31:33;;;;;;;4.60;2.43;;;12.50;99.90;;;;;;5069545;28;20530;-61
2023/11/01 01:33:59;;;;;;;3.63;2.20;;;12.50;99.90;;;;;;5068143;28;20467;-64
2023/11/01 01:36:26;;;;;;;4.40;2.57;;;12.40;99.90;;;;;;5067175;28;20838;-63
2023/11/01 01:38:52;;;;;;;5.13;2.53;;;12.40;99.90;;;;;;5067233;28;20435;-63
2023/11/01 01:41:18;;;;;;;2.97;2.30;;;12.40;99.90;;;;;;5066927;28;20950;-63
2023/11/01 01:43:43;;;;;;;3.97;2.33;;;12.40;99.90;;;;;;5068335;28;20419;-63
2023/11/01 01:46:14;;;;;;;2.30;1.77;;;12.40;99.90;;;;;;5068563;28;20527;-62
2023/11/01 01:48:41;;;;;;;7.43;2.67;;;12.40;99.90;;;;;;5070088;28;20181;-63
2023/11/01 01:51:08;;;;;;;6.97;2.33;;;12.40;99.90;;;;;;5068219;28;20438;-63
2023/11/01 01:53:40;;;;;;;5.00;1.77;;;12.30;99.90;;;;;;5065663;28;20475;-62
2023/11/01 01:56:09;;;;;;;5.30;2.13;;;12.40;99.90;;;;;;5066417;28;21234;-63
2023/11/01 01:58:40;;;;;;;3.90;1.70;;;12.40;99.90;;;;;;5066007;28;20423;-62
2023/11/01 02:01:06;;;;;;;4.10;1.60;;;12.40;99.90;;;;;;5067556;28;20517;-63
2023/11/01 02:03:33;;;;;;;4.57;1.80;;;12.30;99.90;;;;;;5067687;28;20427;-63
2023/11/01 02:05:58;;;;;;;3.10;1.67;;;12.30;99.90;;;;;;5069256;28;20429;-63
2023/11/01 02:08:25;;;;;;;5.20;1.90;;;12.30;99.90;;;;;;5066250;28;20431;-63
2023/11/01 02:10:51;;;;;;;3.70;2.17;;;12.30;99.90;;;;;;5066479;28;20184;-63
2023/11/01 02:13:17;;;;;;;2.70;1.83;;;12.30;99.90;;;;;;5065763;28;20459;-64
2023/11/01 02:15:45;;;;;;;4.83;1.93;;;12.30;99.90;;;;;;5069360;28;20426;-62
2023/11/01 02:18:12;;;;;;;3.07;1.87;;;12.30;99.90;;;;;;5067326;28;20815;-63
2023/11/01 02:20:39;;;;;;;4.70;2.60;;;12.30;99.90;;;;;;5067775;28;20423;-64
2023/11/01 02:23:42;;;;;;;2.13;1.70;;;12.40;99.90;;;;;;5067270;28;20423;-64
2023/11/01 02:26:08;;;;;;;3.10;1.80;;;12.40;99.90;;;;;;5066980;28;20423;-63
2023/11/01 02:28:34;;;;;;;5.10;2.23;;;12.40;99.90;;;;;;5068159;28;20572;-62
2023/11/01 02:31:00;;;;;;;4.70;1.73;;;12.40;99.90;;;;;;5066445;28;20427;-63
2023/11/01 02:33:26;;;;;;;4.57;1.97;;;12.40;99.90;;;;;;5066504;28;20956;-63
2023/11/01 02:35:52;;;;;;;3.73;1.80;;;12.40;99.90;;;;;;5066450;28;20827;-65
2023/11/01 02:38:18;;;;;;;3.40;1.90;;;12.30;99.90;;;;;;5067300;28;20809;-63
2023/11/01 02:40:44;;;;;;;4.87;2.07;;;12.30;99.90;;;;;;5066075;28;20435;-62
2023/11/01 02:43:10;;;;;;;6.10;2.87;;;12.30;99.90;;;;;;5067044;28;20185;-64
2023/11/01 02:45:35;;;;;;;2.97;1.97;;;12.30;99.90;;;;;;5070989;28;20181;-63
2023/11/01 02:48:01;;;;;;;2.53;1.83;;;12.20;99.90;;;;;;5068022;28;20203;-61
2023/11/01 02:50:27;;;;;;;3.23;2.10;;;12.20;99.90;;;;;;5066406;28;20177;-62
2023/11/01 02:52:52;;;;;;;2.00;1.80;;;12.20;99.90;;;;;;5067472;28;20222;-64
2023/11/01 02:55:18;;;;;;;2.73;1.73;;;12.20;99.90;;;;;;5064210;28;20847;-62
2023/11/01 02:57:45;;;;;;;3.10;1.90;;;12.20;99.90;;;;;;5068823;28;20195;-62
2023/11/01 03:00:20;;;;;;;3.27;2.07;;;12.20;99.90;;;;;;5068067;28;20903;-62
2023/11/01 03:02:49;;;;;;;2.63;2.20;;;12.20;99.90;;;;;;5067479;28;20833;-63
2023/11/01 03:05:16;;;;;;;6.50;2.03;;;12.20;99.90;;;;;;5068096;28;20472;-62
2023/11/01 03:07:42;;;;;;;2.80;1.70;;;12.30;99.90;;;;;;5071009;28;20542;-63
2023/11/01 03:10:09;;;;;;;3.20;1.77;;;12.30;99.90;;;;;;5067918;28;20518;-61
2023/11/01 03:12:38;;;;;;;6.70;2.13;;;12.20;99.90;;;;;;5064821;28;20435;-64
2023/11/01 03:15:07;;;;;;;3.00;1.70;;;12.30;99.90;;;;;;5067305;28;20422;-63
2023/11/01 03:17:36;;;;;;;5.70;1.87;;;12.20;99.90;;;;;;5065507;28;20442;-62
2023/11/01 03:20:05;;;;;;;5.27;2.20;;;12.30;99.90;;;;;;5067110;28;20422;-63
2023/11/01 03:22:31;;;;;;;2.23;1.57;;;12.20;99.90;;;;;;5070048;28;20427;-62
2023/11/01 03:24:57;;;;;;;10.30;2.80;;;12.20;99.90;;;;;;5070966;28;20506;-64
2023/11/01 03:27:23;;;;;;;2.37;1.63;;;12.30;99.90;;;;;;5070735;28;20426;-63
2023/11/01 03:29:48;;;;;;;3.03;1.87;;;12.20;99.90;;;;;;5071915;28;21021;-62
2023/11/01 03:32:14;;;;;;;2.80;1.70;;;12.30;99.90;;;;;;5071723;28;20196;-61
2023/11/01 03:34:40;;;;;;;2.60;1.87;;;12.30;99.90;;;;;;5069797;28;20224;-62
2023/11/01 03:37:06;;;;;;;3.47;1.90;;;12.30;99.90;;;;;;5070754;28;20312;-63
2023/11/01 03:39:32;;;;;;;5.37;1.63;;;12.30;99.90;;;;;;5067461;28;21144;-62
2023/11/01 03:41:57;;;;;;;3.03;1.93;;;12.20;99.90;;;;;;5071237;28;20184;-63
2023/11/01 03:44:23;;;;;;;2.20;1.67;;;12.20;99.90;;;;;;5068467;28;20203;-63
2023/11/01 03:46:49;;;;;;;2.40;1.60;;;12.20;99.90;;;;;;5070139;28;20185;-62
2023/11/01 03:49:14;;;;;;;2.07;1.33;;;12.30;99.90;;;;;;5069782;28;20200;-62
2023/11/01 03:51:40;;;;;;;1.20;1.10;;;12.30;99.90;;;;;;5070634;28;20867;-64
2023/11/01 03:54:06;;;;;;;3.07;1.50;;;12.20;99.90;;;;;;5067929;28;20738;-61
2023/11/01 03:56:31;;;;;;;3.17;1.60;;;12.20;99.90;;;;;;5068828;28;20251;-62
2023/11/01 03:58:58;;;;;;;2.30;1.47;;;12.10;99.90;;;;;;5070575;28;20253;-62
2023/11/01 04:01:24;;;;;;;1.70;1.27;;;12.20;99.90;;;;;;5070502;28;20181;-64
2023/11/01 04:03:49;;;;;;;2.13;1.70;;;12.10;99.90;;;;;;5069729;28;20843;-63
2023/11/01 04:06:15;;;;;;;4.27;1.60;;;12.10;99.90;;;;;;5070372;28;20208;-62
2023/11/01 04:08:41;;;;;;;3.80;1.50;;;12.10;99.90;;;;;;5069149;28;20698;-62
2023/11/01 04:11:06;;;;;;;1.70;1.50;;;12.10;99.90;;;;;;5070522;28;20254;-62
2023/11/01 04:13:32;;;;;;;2.00;1.30;;;12.10;99.90;;;;;;5069553;28;20208;-63
2023/11/01 04:15:58;;;;;;;3.70;1.33;;;12.10;99.90;;;;;;5071069;28;20185;-64
2023/11/01 04:18:24;;;;;;;3.40;1.30;;;12.00;99.90;;;;;;5071049;28;20220;-63
2023/11/01 04:20:50;;;;;;;5.13;1.53;;;12.10;99.90;;;;;;5073409;28;20188;-62
2023/11/01 04:23:16;;;;;;;2.23;1.30;;;12.10;99.90;;;;;;5070537;28;20419;-62
2023/11/01 04:25:42;;;;;;;1.90;1.30;;;12.10;99.90;;;;;;5073176;28;20236;-64
2023/11/01 04:28:08;;;;;;;2.20;1.13;;;12.00;99.90;;;;;;5070988;28;21377;-63
2023/11/01 04:30:38;;;;;;;1.60;1.07;;;12.10;99.90;;;;;;5070448;28;20275;-63
2023/11/01 04:33:08;;;;;;;1.30;1.20;;;12.10;99.90;;;;;;5083195;28;20881;-63
2023/11/01 04:35:36;;;;;;;2.07;1.00;;;12.10;99.90;;;;;;5069940;28;20434;-62
2023/11/01 04:38:03;;;;;;;2.03;1.00;;;12.20;99.90;;;;;;5069002;28;20458;-64
2023/11/01 04:40:28;;;;;;;1.53;0.80;;;12.20;99.90;;;;;;5066826;28;20463;-63
2023/11/01 04:42:54;;;;;;;1.53;1.03;;;12.20;99.90;;;;;;5067657;28;20904;-61
2023/11/01 04:45:20;;;;;;;2.70;1.30;;;12.20;99.90;;;;;;5070126;28;21039;-63
2023/11/01 04:47:46;;;;;;;4.17;1.00;;;12.20;99.90;;;;;;5067590;28;20203;-64
2023/11/01 04:50:14;;;;;;;1.67;1.00;;;12.20;99.90;;;;;;5069126;28;20427;-63
2023/11/01 04:52:41;;;;;;;3.30;1.20;;;12.30;99.90;;;;;;5069010;28;20177;-63
2023/11/01 04:55:08;;;;;;;1.57;0.90;;;12.30;99.90;;;;;;5069639;28;20418;-61
2023/11/01 04:57:33;;;;;;;1.43;1.07;;;12.30;99.90;;;;;;5069440;28;20845;-64
2023/11/01 05:00:00;;;;;;;2.27;1.17;;;12.30;99.90;;;;;;5069032;28;20515;-62
2023/11/01 05:02:25;;;;;;;1.10;1.00;;;12.30;99.90;;;;;;5073305;28;20201;-63
2023/11/01 05:04:51;;;;;;;1.57;1.03;;;12.30;99.90;;;;;;5068546;28;21080;-64
2023/11/01 05:07:16;;;;;;;4.23;1.10;;;12.30;99.90;;;;;;5068243;28;20300;-63
2023/11/01 05:09:42;;;;;;;1.37;1.00;;;12.30;99.90;;;;;;5067499;28;20185;-64
2023/11/01 05:12:08;;;;;;;1.10;1.00;;;12.30;99.90;;;;;;5069106;28;20188;-63
2023/11/01 05:14:34;;;;;;;1.60;1.00;;;12.30;99.90;;;;;;5068763;28;20470;-63
2023/11/01 05:17:00;;;;;;;1.33;1.10;;;12.40;99.90;;;;;;5069384;28;20181;-64
2023/11/01 05:19:26;;;;;;;1.03;0.93;;;12.30;99.90;;;;;;5071248;28;21014;-64
2023/11/01 05:21:52;;;;;;;1.33;0.97;;;12.30;99.90;;;;;;5068719;28;20423;-62
2023/11/01 05:24:17;;;;;;;1.53;1.20;;;12.30;99.90;;;;;;5067873;28;20428;-62
2023/11/01 05:26:43;;;;;;;1.13;0.90;;;12.30;99.90;;;;;;5067648;28;20196;-63
2023/11/01 05:29:12;;;;;;;7.43;1.10;;;12.30;99.90;;;;;;5068789;28;20184;-63
2023/11/01 05:31:37;;;;;;;1.67;1.00;;;12.30;99.90;;;;;;5068763;28;20212;-63
2023/11/01 05:34:05;;;;;;;2.63;1.10;;;12.40;99.90;;;;;;5067795;28;20466;-63
2023/11/01 05:36:31;;;;;;;2.27;1.13;;;12.40;99.90;;;;;;5067177;28;20177;-61
2023/11/01 05:38:56;;;;;;;1.77;1.10;;;12.40;99.90;;;;;;5068814;28;20450;-62
2023/11/01 05:41:22;;;;;;;1.17;0.80;;;12.40;99.90;;;;;;5062303;28;20185;-62
2023/11/01 05:43:48;;;;;;;2.40;1.10;;;12.50;99.90;;;;;;5074408;28;20199;-61
2023/11/01 05:46:18;;;;;;;2.90;1.30;;;12.40;99.90;;;;;;5069492;28;20431;-64
2023/11/01 05:48:45;;;;;;;2.07;1.10;;;12.40;99.90;;;;;;5068509;28;20608;-62
2023/11/01 05:51:10;;;;;;;1.50;1.20;;;12.40;99.90;;;;;;5068379;28;20443;-62
2023/11/01 05:53:36;;;;;;;2.40;1.30;;;12.40;99.90;;;;;;5068254;28;20481;-62
2023/11/01 05:56:02;;;;;;;1.73;0.97;;;12.50;99.90;;;;;;5067939;28;20181;-62
2023/11/01 05:58:28;;;;;;;1.87;1.30;;;12.50;99.90;;;;;;5068498;28;20189;-63
2023/11/01 06:00:55;;;;;;;3.00;1.00;;;12.50;99.90;;;;;;5071374;28;20208;-62
2023/11/01 06:03:24;;;;;;;2.10;1.20;;;12.50;99.90;;;;;;5067763;28;20428;-63
2023/11/01 06:05:50;;;;;;;1.83;1.40;;;12.50;99.90;;;;;;5068210;28;20435;-63
2023/11/01 06:08:16;;;;;;;2.13;1.10;;;12.50;99.90;;;;;;5068789;28;20435;-62
2023/11/01 06:10:42;;;;;;;3.20;1.30;;;12.50;99.90;;;;;;5068773;28;20984;-61
2023/11/01 06:13:08;;;;;;;4.60;1.20;;;12.60;99.90;;;;;;5067271;28;20228;-61
2023/11/01 06:15:36;;;;;;;2.73;1.40;;;12.60;99.90;;;;;;5067644;28;20200;-62
2023/11/01 06:18:05;;;;;;;3.27;1.30;;;12.60;99.90;;;;;;5070890;28;20984;-63
2023/11/01 06:20:31;;;;;;;2.00;1.07;;;12.60;99.90;;;;;;5068202;28;21289;-62
2023/11/01 06:23:01;;;;;;;2.50;1.50;;;12.60;99.90;;;;;;5066965;28;20437;-62
2023/11/01 06:25:27;;;;;;;3.30;2.10;;;12.60;99.90;;;;;;5065206;28;21054;-64
2023/11/01 06:27:54;;;;;;;3.93;1.50;;;12.60;99.90;;;;;;5068067;28;20430;-64
2023/11/01 06:30:20;;;;;;;6.23;1.30;;;12.60;99.90;;;;;;5067720;28;20934;-63
2023/11/01 06:32:46;;;;;;;2.87;1.40;;;12.50;99.90;;;;;;5065232;28;20438;-61
2023/11/01 06:35:11;;;;;;;7.60;1.70;;;12.60;99.90;;;;;;5067280;28;20218;-62
2023/11/01 06:37:37;;;;;;;4.20;1.57;;;12.60;99.90;;;;;;5068761;28;20176;-63
2023/11/01 06:40:04;;;;;;;4.67;1.70;;;12.60;99.90;;;;;;5070653;28;20654;-61
2023/11/01 06:42:31;;;;;;;3.77;1.40;;;12.60;99.90;;;;;;5066328;28;20182;-64
2023/11/01 06:44:56;;;;;;;2.73;1.57;;;12.60;99.90;;;;;;5067660;28;20437;-63
2023/11/01 06:47:22;;;;;;;5.43;1.20;;;12.60;99.90;;;;;;5067577;28;20419;-61
2023/11/01 06:49:48;;;;;;;2.60;1.40;;;12.60;99.90;;;;;;5071415;28;20264;-63
2023/11/01 06:52:14;;;;;;;4.37;1.30;;;12.60;99.90;;;;;;5067586;28;20466;-62
2023/11/01 06:54:45;;;;;;;2.47;1.50;;;12.70;99.90;;;;;;5067612;28;20262;-63
2023/11/01 06:57:11;;;;;;;4.97;1.67;;;12.70;99.90;;;;;;5071278;28;20181;-63
2023/11/01 06:59:41;;;;;;;5.57;2.43;;;12.70;99.90;;;;;;5072300;28;20927;-62
2023/11/01 07:02:07;;;;;;;4.47;1.50;;;12.70;99.90;;;;;;5071345;28;21364;-63
2023/11/01 07:04:33;;;;;;;4.10;1.40;;;12.70;99.90;;;;;;5071484;28;20431;-63
2023/11/01 07:06:59;;;;;;;3.63;1.60;;;12.70;99.90;;;;;;5071395;28;20527;-62
2023/11/01 07:09:24;;;;;;;2.23;1.30;;;12.70;99.90;;;;;;5071701;28;20211;-62
2023/11/01 07:11:50;;;;;;;5.27;1.90;;;12.70;99.90;;;;;;5070070;28;20209;-62
2023/11/01 07:14:17;;;;;;;3.40;1.47;;;12.80;99.90;;;;;;5069081;28;20215;-62
2023/11/01 07:16:45;;;;;;;3.70;1.17;;;12.80;99.90;;;;;;5071807;28;20185;-62
2023/11/01 07:19:11;;;;;;;2.83;1.50;;;12.80;99.90;;;;;;5069559;28;20443;-63
2023/11/01 07:21:39;;;;;;;4.70;1.70;;;12.80;99.90;;;;;;5072129;28;20430;-62
2023/11/01 07:24:06;;;;;;;2.30;1.70;;;12.80;99.90;;;;;;5068564;28;20515;-63
2023/11/01 07:26:32;;;;;;;5.93;1.57;;;12.80;99.90;;;;;;5075612;28;20493;-62
2023/11/01 07:28:59;;;;;;;3.47;1.43;;;12.80;99.90;;;;;;5071831;28;21244;-62
2023/11/01 07:31:25;;;;;;;2.60;1.53;;;12.80;99.90;;;;;;5070557;28;20261;-62
2023/11/01 07:33:51;;;;;;;3.97;1.70;;;12.90;99.90;;;;;;5071248;28;20470;-64
2023/11/01 07:36:18;;;;;;;2.70;1.63;;;12.90;99.90;;;;;;5070791;28;20912;-63
2023/11/01 07:38:44;;;;;;;3.40;1.40;;;12.90;99.90;;;;;;5070828;28;20477;-63
2023/11/01 07:41:10;;;;;;;3.20;1.37;;;12.90;99.90;;;;;;5070829;28;20550;-63
2023/11/01 07:43:35;;;;;;;1.97;1.20;;;12.90;99.90;;;;;;5070574;28;20192;-63
2023/11/01 07:46:01;;;;;;;4.17;1.30;;;12.90;99.90;;;;;;5070817;28;20435;-63
2023/11/01 07:48:27;;;;;;;5.50;1.80;;;12.90;99.90;;;;;;5071018;28;20510;-62
2023/11/01 07:50:53;;;;;;;3.33;1.60;;;13.00;99.90;;;;;;5069660;28;20197;-63
2023/11/01 07:53:18;;;;;;;4.97;1.40;;;13.00;99.90;;;;;;5069257;28;20408;-62
2023/11/01 07:55:44;;;;;;;6.90;1.53;;;13.10;99.90;;;;;;5068496;28;20299;-62
2023/11/01 07:58:09;;;;;;;2.00;1.40;;;13.20;99.90;;;;;;5066094;28;20577;-62
2023/11/01 08:00:35;;;;;;;4.87;1.70;;;13.20;99.90;;;;;;5069516;28;20193;-63
2023/11/01 08:03:01;;;;;;;2.27;1.40;;;13.30;99.90;;;;;;5067514;28;20177;-63
2023/11/01 08:05:27;;;;;;;3.50;1.33;;;13.30;99.90;;;;;;5066520;28;20832;-62
2023/11/01 08:07:53;;;;;;;3.90;1.50;;;13.40;99.90;;;;;;5059550;28;20557;-64
2023/11/01 08:10:20;;;;;;;4.97;1.67;;;13.60;99.90;;;;;;5059723;28;20633;-62
2023/11/01 08:12:46;;;;;;;2.83;1.67;;;13.80;99.90;;;;;;5067506;28;20462;-63
2023/11/01 08:15:11;;;;;;;5.63;1.50;;;13.90;99.90;;;;;;5070024;28;20461;-62
2023/11/01 08:17:37;;;;;;;5.10;1.63;;;13.90;99.90;;;;;;5066409;28;20446;-61
2023/11/01 08:20:04;;;;;;;3.40;1.40;;;13.90;99.90;;;;;;5066109;28;20290;-63
2023/11/01 08:22:30;;;;;;;3.90;1.47;;;13.90;99.90;;;;;;5066292;28;20272;-62
2023/11/01 08:24:55;;;;;;;2.80;1.43;;;13.90;99.90;;;;;;5067553;28;20446;-63
2023/11/01 08:27:21;;;;;;;3.63;1.20;;;13.90;99.90;;;;;;5066461;28;20231;-62
2023/11/01 08:29:47;;;;;;;4.70;1.57;;;13.90;99.90;;;;;;5068696;28;20200;-63
2023/11/01 08:32:12;;;;;;;4.17;1.40;;;13.90;99.90;;;;;;5068140;28;20225;-62
2023/11/01 08:34:38;;;;;;;2.60;1.27;;;13.90;99.90;;;;;;5065855;28;20847;-62
2023/11/01 08:37:04;;;;;;;6.33;2.10;;;13.80;99.90;;;;;;5068162;28;20298;-61
2023/11/01 08:39:30;;;;;;;2.93;1.87;;;13.80;99.90;;;;;;5066489;28;20249;-62
2023/11/01 08:41:56;;;;;;;3.20;1.27;;;13.80;99.90;;;;;;5068600;28;20470;-63
2023/11/01 08:44:22;;;;;;;3.50;1.80;;;13.80;99.90;;;;;;5066960;28;20543;-61
2023/11/01 08:46:47;;;;;;;5.00;2.00;;;13.80;99.90;;;;;;5067539;28;20462;-63
2023/11/01 08:49:13;;;;;;;3.80;1.80;;;13.80;99.90;;;;;;5067466;28;20695;-63
2023/11/01 08:51:39;;;;;;;3.97;1.60;;;13.80;99.90;;;;;;5058669;28;20283;-63
2023/11/01 08:54:06;;;;;;;4.77;2.93;;;13.80;99.90;;;;;;5058621;28;20913;-62
2023/11/01 08:56:31;;;;;;;1.27;1.17;;;13.90;99.90;;;;;;5065714;28;20501;-61
2023/11/01 08:58:57;;;;;;;4.20;2.00;;;14.10;99.90;;;;;;5064795;28;20542;-62
2023/11/01 09:01:24;;;;;;;2.83;1.13;;;14.30;99.90;;;;;;5067077;28;20216;-63
2023/11/01 09:03:50;;;;;;;6.20;1.67;;;14.40;99.90;;;;;;5065744;28;20198;-63
2023/11/01 09:06:16;;;;;;;1.83;1.30;;;14.60;99.90;;;;;;5061777;28;20961;-63
2023/11/01 09:08:43;;;;;;;4.70;1.40;;;14.80;99.90;;;;;;5064138;28;21161;-64
2023/11/01 09:11:09;;;;;;;4.47;2.33;;;15.00;99.90;;;;;;5065530;28;20296;-61
2023/11/01 09:13:34;;;;;;;6.20;1.73;;;15.10;99.90;;;;;;5060882;28;20474;-63
2023/11/01 09:16:00;;;;;;;2.87;1.23;;;15.20;99.90;;;;;;5057248;28;20458;-62
2023/11/01 09:18:26;;;;;;;2.73;1.17;;;15.30;99.90;;;;;;5064136;28;20593;-61
2023/11/01 09:20:51;;;;;;;3.50;1.30;;;15.30;99.90;;;;;;5065932;28;20459;-62
2023/11/01 09:23:18;;;;;;;3.27;1.20;;;15.40;99.90;;;;;;5061606;28;20220;-64
2023/11/01 09:25:44;;;;;;;4.30;1.40;;;15.30;99.90;;;;;;5062912;28;20629;-63
2023/11/01 09:28:10;;;;;;;2.93;1.70;;;15.30;99.90;;;;;;5062176;28;20534;-62
2023/11/01 09:30:36;;;;;;;7.90;1.47;;;15.20;99.90;;;;;;5065878;28;20219;-63
2023/11/01 09:33:02;;;;;;;5.20;1.37;;;15.10;99.90;;;;;;5067996;28;20255;-64
2023/11/01 09:35:29;;;;;;;8.97;1.73;;;15.00;99.90;;;;;;5066792;28;20538;-63
2023/11/01 09:37:54;;;;;;;5.10;1.83;;;15.00;99.90;;;;;;5063156;28;20486;-62
2023/11/01 09:40:20;;;;;;;3.50;1.10;;;14.90;99.90;;;;;;5064204;28;20469;-61
2023/11/01 09:42:49;;;;;;;5.13;1.17;;;14.90;99.90;;;;;;5062808;28;20298;-62
2023/11/01 09:45:17;;;;;;;4.17;1.93;;;14.90;99.90;;;;;;5063192;28;20451;-62
2023/11/01 09:47:43;;;;;;;2.03;1.20;;;14.90;99.90;;;;;;5063821;28;20459;-63
2023/11/01 09:50:10;;;;;;;6.53;2.10;;;14.90;99.90;;;;;;5063183;28;20461;-62
2023/11/01 09:52:37;;;;;;;5.00;1.27;;;14.80;99.90;;;;;;5068975;28;21018;-62
2023/11/01 09:55:04;;;;;;;2.87;1.10;;;14.80;99.90;;;;;;5064111;28;20958;-61
2023/11/01 09:57:32;;;;;;;1.87;1.03;;;14.80;99.90;;;;;;5064591;28;20474;-62
2023/11/01 10:00:01;;;;;;;3.80;1.60;;;14.80;99.90;;;;;;5063275;28;20443;-62
2023/11/01 10:02:27;;;;;;;2.50;1.10;;;14.90;99.90;;;;;;5064793;28;20451;-64
2023/11/01 10:04:53;;;;;;;3.70;1.13;;;14.90;99.90;;;;;;5063637;28;20431;-63
2023/11/01 10:07:19;;;;;;;4.60;1.27;;;15.00;99.90;;;;;;5065587;28;20498;-62
2023/11/01 10:09:46;;;;;;;2.73;1.10;;;15.10;99.90;;;;;;5065956;28;20570;-63
2023/11/01 10:12:13;;;;;;;1.33;1.00;;;15.10;99.90;;;;;;5065716;28;20213;-62
2023/11/01 10:14:39;;;;;;;2.47;1.87;;;15.10;99.90;;;;;;5064190;28;20566;-63
2023/11/01 10:17:05;;;;;;;3.20;1.13;;;15.10;99.90;;;;;;5066405;28;20528;-63
2023/11/01 10:19:30;;;;;;;4.07;1.63;;;15.10;99.90;;;;;;5064861;28;20457;-64
2023/11/01 10:21:57;;;;;;;3.10;1.40;;;15.00;99.90;;;;;;5065312;28;20221;-61
2023/11/01 10:24:25;;;;;;;2.67;1.30;;;15.00;99.90;;;;;;5064032;28;20462;-63
2023/11/01 10:26:52;;;;;;;3.30;1.47;;;14.90;99.90;;;;;;5065872;28;20506;-63
2023/11/01 10:29:17;;;;;;;3.10;1.40;;;14.90;99.90;;;;;;5064657;28;20443;-61
2023/11/01 10:31:54;;;;;;;2.17;1.30;;;14.80;99.90;;;;;;5063581;28;21359;-62
2023/11/01 10:34:25;;;;;;;1.80;1.37;;;14.80;99.90;;;;;;5064959;28;20220;-62
2023/11/01 10:36:52;;;;;;;7.20;1.50;;;14.80;99.90;;;;;;5065068;28;20467;-63
2023/11/01 10:39:19;;;;;;;3.57;1.10;;;14.70;99.90;;;;;;5064792;28;20442;-63
2023/11/01 10:41:49;;;;;;;3.40;1.27;;;14.70;99.90;;;;;;5065177;28;20438;-62
2023/11/01 10:44:15;;;;;;;4.07;1.40;;;14.80;99.90;;;;;;5065369;28;20427;-64
2023/11/01 10:46:42;;;;;;;5.60;1.33;;;14.80;99.90;;;;;;5069375;28;20517;-62
2023/11/01 10:49:14;;;;;;;4.93;1.80;;;14.90;99.90;;;;;;5066190;28;20423;-61
2023/11/01 10:51:41;;;;;;;5.00;1.73;;;14.90;99.90;;;;;;5066086;28;20427;-62
2023/11/01 10:54:07;;;;;;;3.63;1.13;;;14.90;99.90;;;;;;5064463;28;20474;-64
2023/11/01 10:56:33;;;;;;;4.57;1.27;;;14.90;99.90;;;;;;5065888;28;20427;-62
2023/11/01 10:59:05;;;;;;;2.30;1.20;;;14.90;99.90;;;;;;5064198;28;20466;-61
2023/11/01 11:01:44;;;;;;;4.87;1.33;;;14.90;99.90;;;;;;5066995;28;21824;-63
2023/11/01 11:04:35;;;;;;;4.60;1.20;;;14.90;99.90;;;;;;5062502;28;20457;-63
2023/11/01 11:07:12;;;;;;;6.23;1.50;;;14.90;99.90;;;;;;5065285;28;20442;-63
2023/11/01 11:09:38;;;;;;;3.57;1.30;;;15.00;99.90;;;;;;5065283;28;20776;-62
2023/11/01 11:12:16;;;;;;;2.03;1.10;;;15.00;99.90;;;;;;5064322;28;20438;-60
2023/11/01 11:14:43;;;;;;;1.80;1.40;;;15.00;99.90;;;;;;5064553;28;20893;-63
2023/11/01 11:17:14;;;;;;;8.53;1.77;;;15.10;99.90;;;;;;5063170;28;20482;-63
2023/11/01 11:20:06;;;;;;;4.53;2.00;;;15.20;99.90;;;;;;5062259;28;21226;-63
2023/11/01 11:23:00;;;;;;;6.07;1.60;;;15.20;99.90;;;;;;5064274;28;20503;-61
2023/11/01 11:25:38;;;;;;;8.50;1.60;;;15.30;99.90;;;;;;5061712;28;20557;-63
2023/11/01 11:28:08;;;;;;;3.73;1.63;;;15.30;99.90;;;;;;5059218;28;20446;-62
2023/11/01 11:31:03;;;;;;;5.20;1.50;;;15.30;99.90;;;;;;5064625;28;20435;-63
2023/11/01 11:33:31;;;;;;;3.93;1.23;;;15.40;99.90;;;;;;5066561;28;20489;-62
2023/11/01 11:36:10;;;;;;;2.57;1.20;;;15.50;99.90;;;;;;5062413;28;21190;-62
2023/11/01 11:38:38;;;;;;;2.60;1.30;;;15.50;99.90;;;;;;5065322;28;20449;-63
2023/11/01 11:41:22;;;;;;;2.23;1.40;;;15.50;99.90;;;;;;5048275;28;20468;-62
2023/11/01 11:44:00;;;;;;;5.30;1.63;;;15.50;99.90;;;;;;5059623;28;20434;-62
2023/11/01 11:46:33;;;;;;;3.50;1.17;;;15.50;99.90;;;;;;5070439;28;20425;-61
2023/11/01 11:48:59;;;;;;;3.17;1.40;;;15.40;99.90;;;;;;5068937;28;20439;-62
2023/11/01 11:51:26;;;;;;;3.07;1.10;;;15.30;99.90;;;;;;5068637;28;20423;-61
2023/11/01 11:53:52;;;;;;;3.73;1.80;;;15.30;99.90;;;;;;5067980;28;20478;-62
2023/11/01 11:56:19;;;;;;;2.20;1.17;;;15.30;99.90;;;;;;5067865;28;21270;-61
2023/11/01 11:58:45;;;;;;;5.43;1.57;;;15.30;99.90;;;;;;5057369;28;20442;-63
2023/11/01 12:01:24;;;;;;;3.80;1.60;;;15.40;99.90;;;;;;5064410;28;21095;-63
2023/11/01 12:03:50;;;;;;;5.80;1.40;;;15.50;99.90;;;;;;5066170;28;20936;-63
2023/11/01 12:06:16;;;;;;;3.77;1.53;;;15.60;99.90;;;;;;5068807;28;20424;-64
2023/11/01 12:08:42;;;;;;;5.57;1.50;;;15.70;99.90;;;;;;5066962;28;20265;-63
2023/11/01 12:11:09;;;;;;;4.83;1.40;;;15.80;99.90;;;;;;5068143;28;20434;-63
2023/11/01 12:13:50;;;;;;;5.87;1.43;;;15.90;99.90;;;;;;5068947;28;20678;-61
2023/11/01 12:16:29;;;;;;;3.47;1.57;;;16.00;99.90;;;;;;5068473;28;20423;-63
2023/11/01 12:19:18;;;;;;;5.20;1.63;;;16.10;99.90;;;;;;5069256;28;20423;-64
2023/11/01 12:21:55;;;;;;;5.30;1.50;;;16.20;99.90;;;;;;5067001;28;20430;-63
2023/11/01 12:24:22;;;;;;;7.17;1.60;;;16.30;99.90;;;;;;5066693;28;20466;-63
2023/11/01 12:27:27;;;;;;;5.93;1.40;;;16.40;99.90;;;;;;5072456;28;20486;-63
2023/11/01 12:29:55;;;;;;;3.03;1.60;;;16.40;99.90;;;;;;5055386;28;20428;-62
2023/11/01 12:32:23;;;;;;;3.97;1.73;;;16.40;99.90;;;;;;5067267;28;20451;-63
2023/11/01 12:34:49;;;;;;;3.80;1.23;;;16.40;99.90;;;;;;5065806;28;20471;-64
2023/11/01 12:37:26;;;;;;;5.40;1.53;;;16.40;99.90;;;;;;5066619;28;20427;-64
2023/11/01 12:40:11;;;;;;;7.97;2.20;;;16.40;99.90;;;;;;5070025;28;20187;-63
2023/11/01 12:42:41;;;;;;;4.40;1.30;;;16.40;99.90;;;;;;5071161;28;20452;-63
2023/11/01 12:45:08;;;;;;;4.57;1.90;;;16.30;99.90;;;;;;5068215;28;20422;-64
2023/11/01 12:47:52;;;;;;;5.60;1.67;;;16.30;99.90;;;;;;5068218;28;20429;-62
2023/11/01 12:50:24;;;;;;;3.30;2.33;;;16.30;99.90;;;;;;5065617;28;20505;-63